createdAt,value
2024-02-18T00:01:07.388Z,2.77
2024-02-18T00:06:29.557Z,2.62
2024-02-18T00:11:32.956Z,2.49
2024-02-18T00:16:36.387Z,2.48
2024-02-18T00:21:39.713Z,2.40
2024-02-18T00:26:53.943Z,2.38
2024-02-18T00:32:01.477Z,2.35
2024-02-18T00:37:05.263Z,2.30
2024-02-18T00:42:10.048Z,2.15
2024-02-18T00:47:13.572Z,2.00
2024-02-18T00:52:17.093Z,1.84
2024-02-18T00:57:20.762Z,1.68
2024-02-18T01:02:24.223Z,1.52
2024-02-18T01:07:27.438Z,1.35
2024-02-18T01:12:30.799Z,1.19
2024-02-18T01:17:34.216Z,1.06
2024-02-18T01:22:37.792Z,0.95
2024-02-18T01:27:41.124Z,0.84
2024-02-18T01:32:44.376Z,0.77
2024-02-18T01:37:47.625Z,0.84
2024-02-18T01:42:50.851Z,0.92
2024-02-18T01:47:54.515Z,0.92
2024-02-18T01:52:58.088Z,0.84
2024-02-18T01:58:03.269Z,0.73
2024-02-18T02:03:09.138Z,0.60
2024-02-18T02:08:12.428Z,0.46
2024-02-18T02:13:15.640Z,0.34
2024-02-18T02:18:18.861Z,0.22
2024-02-18T02:23:22.161Z,0.13
2024-02-18T02:28:30.313Z,0.04
2024-02-18T02:33:33.438Z,-0.03
2024-02-18T02:38:37.838Z,-0.12
2024-02-18T02:43:41.050Z,-0.22
2024-02-18T02:48:44.229Z,-0.33
2024-02-18T02:53:47.516Z,-0.42
2024-02-18T02:58:50.822Z,-0.52
2024-02-18T03:03:54.240Z,-0.60
2024-02-18T03:08:57.422Z,-0.65
2024-02-18T03:14:00.420Z,-0.67
2024-02-18T03:19:03.686Z,-0.68
2024-02-18T03:24:07.061Z,-0.69
2024-02-18T03:29:12.009Z,-0.72
2024-02-18T03:34:15.189Z,-0.74
2024-02-18T03:39:21.295Z,-0.76
2024-02-18T03:44:26.147Z,-0.79
2024-02-18T03:49:30.860Z,-0.84
2024-02-18T03:54:35.016Z,-0.89
2024-02-18T03:59:38.130Z,-0.93
2024-02-18T04:04:41.368Z,-0.99
2024-02-18T04:09:44.741Z,-1.06
2024-02-18T04:14:47.972Z,-1.12
2024-02-18T04:19:51.203Z,-1.18
2024-02-18T04:24:54.416Z,-1.26
2024-02-18T04:29:57.809Z,-1.29
2024-02-18T04:35:01.051Z,-1.28
2024-02-18T04:40:05.520Z,-1.31
2024-02-18T04:45:09.434Z,-1.33
2024-02-18T04:50:12.496Z,-1.38
2024-02-18T04:55:15.769Z,-1.42
2024-02-18T05:00:19.228Z,-1.44
2024-02-18T05:05:22.335Z,-1.46
2024-02-18T05:10:26.060Z,-1.48
2024-02-18T05:15:29.226Z,-1.51
2024-02-18T05:20:32.384Z,-1.51
2024-02-18T05:25:35.600Z,-1.54
2024-02-18T05:30:38.841Z,-1.59
2024-02-18T05:35:42.256Z,-1.63
2024-02-18T05:40:45.430Z,-1.60
2024-02-18T05:45:48.491Z,-1.61
2024-02-18T05:50:51.968Z,-1.60
2024-02-18T05:55:55.166Z,-1.61
2024-02-18T06:00:58.487Z,-1.59
2024-02-18T06:06:01.949Z,-1.40
2024-02-18T06:11:08.720Z,-1.00
2024-02-18T06:16:12.118Z,-0.30
2024-02-18T06:21:22.538Z,1.24
2024-02-18T06:26:26.220Z,2.97
2024-02-18T06:31:29.448Z,4.73
2024-02-18T06:36:37.552Z,6.62
2024-02-18T06:41:41.072Z,8.23
2024-02-18T06:46:44.278Z,9.49
2024-02-18T06:51:47.629Z,10.52
2024-02-18T06:56:50.804Z,11.18
2024-02-18T07:01:54.044Z,10.78
2024-02-18T07:06:57.308Z,10.36
2024-02-18T07:12:00.650Z,10.72
2024-02-18T07:17:04.127Z,11.72
2024-02-18T07:22:08.128Z,12.12
2024-02-18T07:27:11.435Z,12.48
2024-02-18T07:32:15.557Z,13.37
2024-02-18T07:37:19.042Z,14.30
2024-02-18T07:42:22.671Z,14.89
2024-02-18T07:47:26.108Z,15.10
2024-02-18T07:52:29.553Z,14.95
2024-02-18T07:57:32.962Z,14.98
2024-02-18T08:02:36.566Z,14.49
2024-02-18T08:07:40.235Z,13.97
2024-02-18T08:12:43.768Z,12.72
2024-02-18T08:17:48.747Z,11.16
2024-02-18T08:22:52.318Z,9.77
2024-02-18T08:27:55.861Z,8.96
2024-02-18T08:32:59.858Z,8.65
2024-02-18T08:38:03.343Z,8.45
2024-02-18T08:43:06.708Z,8.05
2024-02-18T08:48:10.206Z,7.28
2024-02-18T08:53:13.572Z,6.90
2024-02-18T08:58:16.843Z,6.77
2024-02-18T09:03:20.387Z,6.53
2024-02-18T09:08:24.078Z,6.36
2024-02-18T09:13:27.261Z,6.32
2024-02-18T09:18:30.624Z,6.34
2024-02-18T09:23:34.104Z,6.21
2024-02-18T09:28:37.284Z,5.98
2024-02-18T09:33:43.670Z,5.68
2024-02-18T09:38:47.090Z,5.42
2024-02-18T09:43:53.275Z,5.31
2024-02-18T09:48:56.874Z,5.47
2024-02-18T09:54:00.731Z,5.73
2024-02-18T09:59:03.880Z,6.03
2024-02-18T10:04:07.330Z,6.22
2024-02-18T10:09:10.961Z,6.44
2024-02-18T10:14:14.375Z,6.65
2024-02-18T10:19:17.934Z,6.90
2024-02-18T10:24:25.575Z,7.03
2024-02-18T10:29:28.826Z,7.13
2024-02-18T10:34:32.025Z,7.33
2024-02-18T10:39:39.670Z,7.63
2024-02-18T10:44:46.446Z,8.00
2024-02-18T10:49:59.376Z,8.36
2024-02-18T10:55:07.905Z,8.51
2024-02-18T11:00:13.902Z,8.57
2024-02-18T11:05:19.979Z,8.59
2024-02-18T11:10:23.988Z,8.80
2024-02-18T11:15:27.271Z,8.90
2024-02-18T11:20:31.489Z,8.85
2024-02-18T11:25:35.361Z,8.64
2024-02-18T11:30:38.708Z,8.68
2024-02-18T11:35:41.805Z,8.75
2024-02-18T11:40:49.212Z,8.78
2024-02-18T11:45:57.005Z,8.84
2024-02-18T11:51:00.372Z,8.86
2024-02-18T11:56:04.421Z,8.78
2024-02-18T12:01:08.136Z,8.74
2024-02-18T12:06:11.644Z,8.86
2024-02-18T12:11:17.631Z,9.02
2024-02-18T12:16:21.511Z,9.04
2024-02-18T12:21:24.853Z,8.85
2024-02-18T12:26:28.062Z,8.66
2024-02-18T12:31:31.578Z,8.50
2024-02-18T12:36:35.150Z,8.49
2024-02-18T12:41:38.515Z,8.63
2024-02-18T12:46:42.958Z,8.75
2024-02-18T12:51:50.378Z,8.94
2024-02-18T12:56:53.892Z,9.01
2024-02-18T13:01:57.942Z,9.00
2024-02-18T13:07:11.460Z,8.93
2024-02-18T13:12:14.775Z,8.81
2024-02-18T13:17:18.326Z,8.64
2024-02-18T13:22:21.605Z,8.53
2024-02-18T13:27:25.024Z,8.50
2024-02-18T13:32:28.405Z,8.44
2024-02-18T13:37:32.175Z,8.34
2024-02-18T13:42:35.573Z,8.23
2024-02-18T13:47:39.167Z,8.11
2024-02-18T13:52:42.335Z,8.05
2024-02-18T13:57:45.550Z,8.08
2024-02-18T14:02:48.578Z,8.13
2024-02-18T14:07:51.848Z,8.21
2024-02-18T14:12:54.992Z,8.44
2024-02-18T14:17:59.676Z,9.08
2024-02-18T14:23:03.294Z,8.99
2024-02-18T14:28:10.610Z,8.35
2024-02-18T14:33:13.998Z,7.85
2024-02-18T14:38:18.102Z,7.90
2024-02-18T14:43:21.353Z,8.50
2024-02-18T14:48:24.757Z,8.93
2024-02-18T14:53:28.634Z,8.80
2024-02-18T14:58:32.159Z,8.27
2024-02-18T15:03:35.833Z,7.84
2024-02-18T15:08:39.080Z,7.67
2024-02-18T15:13:42.394Z,8.22
2024-02-18T15:18:45.411Z,8.46
2024-02-18T15:23:48.454Z,8.25
2024-02-18T15:28:51.565Z,7.15
2024-02-18T15:33:54.987Z,6.28
2024-02-18T15:38:58.479Z,6.45
2024-02-18T15:44:02.012Z,6.69
2024-02-18T15:49:05.426Z,6.73
2024-02-18T15:54:08.698Z,6.65
2024-02-18T15:59:11.959Z,6.48
2024-02-18T16:04:15.290Z,6.30
2024-02-18T16:09:18.999Z,6.16
2024-02-18T16:14:22.187Z,6.01
2024-02-18T16:19:25.362Z,5.86
2024-02-18T16:24:29.574Z,5.72
2024-02-18T16:29:34.074Z,5.56
2024-02-18T16:34:37.328Z,5.47
2024-02-18T16:39:46.156Z,5.36
2024-02-18T16:44:49.573Z,5.26
2024-02-18T16:49:53.113Z,5.16
2024-02-18T16:54:56.720Z,5.06
2024-02-18T17:00:00.204Z,4.90
2024-02-18T17:05:07.271Z,4.71
2024-02-18T17:10:11.372Z,4.61
2024-02-18T17:15:14.731Z,4.54
2024-02-18T17:20:18.184Z,4.45
2024-02-18T17:25:21.967Z,3.86
2024-02-18T17:30:26.333Z,3.37
2024-02-18T17:35:30.652Z,3.08
2024-02-18T17:40:33.960Z,2.89
2024-02-18T17:45:37.201Z,2.78
2024-02-18T17:50:41.460Z,2.71
2024-02-18T17:55:49.119Z,2.67
2024-02-18T18:00:52.343Z,2.64
2024-02-18T18:05:55.667Z,2.60
2024-02-18T18:10:59.786Z,2.57
2024-02-18T18:16:08.522Z,2.53
2024-02-18T18:21:12.466Z,2.50
2024-02-18T18:26:15.767Z,2.48
2024-02-18T18:31:19.070Z,2.47
2024-02-18T18:36:22.915Z,2.44
2024-02-18T18:41:26.217Z,2.41
2024-02-18T18:46:36.588Z,2.40
2024-02-18T18:51:39.861Z,2.38
2024-02-18T18:56:43.438Z,2.36
2024-02-18T19:01:46.743Z,2.35
2024-02-18T19:06:51.396Z,2.36
2024-02-18T19:11:54.695Z,2.39
2024-02-18T19:16:57.886Z,2.42
2024-02-18T19:22:01.275Z,2.45
2024-02-18T19:27:05.109Z,2.47
2024-02-18T19:32:08.571Z,2.49
2024-02-18T19:37:12.306Z,2.49
2024-02-18T19:42:16.144Z,2.50
2024-02-18T19:47:20.113Z,2.51
2024-02-18T19:52:23.484Z,2.49
2024-02-18T19:57:26.880Z,2.49
2024-02-18T20:02:29.994Z,2.49
2024-02-18T20:07:33.285Z,2.50
2024-02-18T20:12:37.589Z,2.52
2024-02-18T20:17:43.361Z,2.50
2024-02-18T20:22:46.524Z,2.49
2024-02-18T20:27:51.030Z,2.47
2024-02-18T20:32:54.205Z,2.45
2024-02-18T20:37:57.489Z,2.42
2024-02-18T20:43:02.895Z,2.36
2024-02-18T20:48:06.661Z,2.33
2024-02-18T20:53:11.746Z,2.29
2024-02-18T20:58:16.156Z,2.30
2024-02-18T21:03:20.975Z,2.32
2024-02-18T21:08:24.843Z,2.31
2024-02-18T21:13:28.678Z,2.27
2024-02-18T21:18:31.994Z,2.24
2024-02-18T21:23:36.331Z,2.22
2024-02-18T21:28:42.587Z,2.19
2024-02-18T21:33:47.858Z,2.14
2024-02-18T21:38:51.881Z,2.10
2024-02-18T21:43:55.144Z,2.06
2024-02-18T21:48:58.359Z,2.08
2024-02-18T21:54:01.484Z,2.06
2024-02-18T21:59:05.158Z,2.02
2024-02-18T22:04:08.414Z,1.98
2024-02-18T22:09:11.672Z,1.89
2024-02-18T22:14:14.783Z,1.80
2024-02-18T22:19:18.369Z,1.75
2024-02-18T22:24:23.978Z,1.69
2024-02-18T22:29:27.281Z,1.62
2024-02-18T22:34:30.576Z,1.57
2024-02-18T22:39:33.851Z,1.55
2024-02-18T22:44:39.319Z,1.56
2024-02-18T22:49:42.713Z,1.57
2024-02-18T22:54:48.606Z,1.57
2024-02-18T22:59:51.793Z,1.58
2024-02-18T23:04:55.395Z,1.61
2024-02-18T23:09:58.622Z,1.64
2024-02-18T23:15:02.032Z,1.66
2024-02-18T23:20:06.528Z,1.71
2024-02-18T23:25:09.756Z,1.74
2024-02-18T23:30:13.477Z,1.77
2024-02-18T23:35:19.937Z,1.80
2024-02-18T23:40:23.237Z,1.82
2024-02-18T23:45:26.554Z,1.84
2024-02-18T23:50:29.729Z,1.85
2024-02-18T23:55:32.954Z,1.87
